Lindenwood, Illinois
Current Conditions -  °F | °C
As of 7:55 AM on Saturday 22 Nov 2014 (Local Time) from KRPJ Reporting Station
Haze Haze  
Wind Chill: -2°   Ceiling: 400
Heat Index:   Visibility: 0.75mi
Dew Point:   Wind: 10mph
Humidity: 100%   Direction: 190°S
Pressure: 30"   Gusts: NA
Location:  42.05°N, 89.03°W
Report Text: KRPJ 221355Z AUTO 19009KT 3/4SM BR OVC004 02/02 A3000 RMK AO2 P0003 T00230023
Loading
Personal Weather Stations






























Interactive Weather Map New forecast layout! Learn more

10-Day Weather Forecast

Advertisements
Track Severe Weather on mobile